Warning: Javascript must be enabled to use all the features on this page!


Page Loading - Please Wait...

Click to hideNews Bulletins

Peak Streamflow for the Nation

USGS 11059300 SANTA ANA R A E ST NR SAN BERNARDINO CA

San Bernardino County, California
Hydrologic Unit Code 18070203
Latitude  34°03'54", Longitude 117°17'58" NAD27
Drainage area 541  square miles
Output formats
Table
Graph
Tab-separated file
peakfq (watstore) format
Reselect output format
Water
Year
Date Gage
Height
(feet)
Stream-
flow
(cfs)
1939 1939-09-25   6406
1940 1940-01-08 4.90 2,9606
1941 1940-12-24 5.30 3,4206
1942 1941-12-10 4.922 1606
1943 1943-01-23 6.50 7,6006
1944 1944-02-22 4.92 1,1006
1945 1945-02-02 4.90 4,7006
1946 1945-12-23 6.25  
1948 1948-02-05 4.42 2706
1949 1949-01-13 4.45 89.06
1950 1950-02-07   3006
1951 1951-01-11 3.00 1206
1952 1951-12-30   1,2201,6
1953 1952-12-02 3.34 1,3706
1954 1954-01-25 4.62 1,3006
1967 1966-12-06 10.05 8,0006
1968 1968-03-08 6.37 1,1106
1969 1969-02-25 11.90 28,0006
1970 1969-11-07 9.80 1,2806
1971 1970-11-29 8.37 3,4406
1972 1971-12-24 6.41 3,9006
1973 1973-02-11 4.92 7,1002,6
1974 1974-01-07 4.23 3,9806
1975 1974-12-04 4.10 1,1306,C
1976 1976-09-11   8001,6,C
1977 1976-10-22   3781,6,C
1978 1978-03-04 5.70 13,7006,C
1979 1979-02-21 9.45 3,9006,C
1980 1980-02-18 13.40 14,5006,C
1981 1981-01-29   2,9001,6,C
1982 1982-03-17 5.57 6,4306,C
1983 1983-03-02   11,0002,6,C
1984 1983-12-25 4.84 5,2306,C
1985 1984-12-19 5.28 1,2606,C
1986 1986-03-15 7.10 5,3806,C
1987 1987-01-05 5.44 1,0006,C
1988 1987-10-22 5.51 1,0206,C
1989 1989-02-04 5.47 9856,C
1990 1990-02-17 5.80 1,6006,C
1991 1991-03-01 5.94 6,3006,C
1992 1992-02-12 6.18 8,1406,C
1993 1993-01-07 6.86 15,3006,C
1994 1994-02-07 5.41 3,3506,C
1996 1996-02-20 5.512 4,5106,C
1997 1997-01-26 5.96 4,6806,C
1998 1998-02-23 7.70 21,1006,C
1999 1999-07-11 5.00 1,0906,C
2000 2000-02-21 5.56 4,1406,C
2001 2001-01-10 5.19 2,6006,C
2002 2001-11-24 5.21 2,6706,C
2003 2002-12-16 5.58 4,2406,C
2004 2003-12-25 6.70 12,1006,C
2005 2005-01-11 9.04 35,7006,C
2006 2006-04-04 5.74 4,4606,C
2007 2007-04-20 4.67 1,2006,C
2008 2008-02-20 5.50 3,4006,C
2009 2008-12-15 5.08 2,4306,C
2010 2010-01-21 6.25 9,5806,C
2011 2010-12-22 8.35 27,8006,C
2012 2011-10-05 5.10 2,3006,C
2013 2013-02-20 5.14 3,1206,C
2014 2013-11-21 5.80 6,1506,C
2015 2015-09-15 5.81 5,7106,C
2016 2016-01-05 5.41 3,4806,C
2017 2017-01-20 5.94 6,0006,C
2018 2018-01-09 5.41 3,5106,C
2019 2019-02-14 6.96 6,2506,C
2020 2020-03-12 5.99 6,2106,C
?
  Peak Gage-Height Qualification Codes.
?
  Peak Streamflow Qualification Codes.